Terminal Aerodrome Forecast
Issued by NWS North Platte, NE

Home | Current Version | Previous Version | Text Only | Print | Product List | Glossary On
Versions: 1 2 3 4 5 6 7 8 9 10 11 12 13
600
FTUS43 KLBF 241120
TAFLBF
TAF
KLBF 241120Z 2412/2512 VRB03KT P6SM FEW250
     FM242000 18007KT P6SM SKC
     FM250100 15009KT P6SM FEW250
     FM250500 14009KT P6SM SCT200 WS020/17040KT
     FM250800 14009KT P6SM SCT200 WS020/20040KT
     FM251000 15007KT P6SM SCT200=

USA.gov is the U.S. government's official web portal to all federal, state and local government web resources and services.